Beatty, Nevada
Current Conditions -  °F | °C
As of 7:52 PM on Sunday 23 Nov 2014 (Local Time) from KDRA Reporting Station
Clear Clear  
Wind Chill:   Ceiling: Unl
Heat Index:   Visibility: 10mi
Dew Point: -13°   Wind: 5mph
Humidity: 22%   Direction: 80°E
Pressure: 30.25"   Gusts: NA
Location:  36.91°N, 116.76°W
Report Text: KDRA 240352Z AUTO 08004KT 10SM CLR 07/M13 A3025 RMK AO2 SLP231 T00721133 $
Loading
Personal Weather Stations






























Interactive Weather Map New forecast layout! Learn more

10-Day Weather Forecast

Advertisements
Track Severe Weather on mobile